sensor_id;sensor_type;location;lat;lon;timestamp;pressure;altitude;pressure_sealevel;temperature;humidity
68822;BME280;55834;50.870;4.606;2023-05-03T00:00:50;102106.56;;;6.62;47.19
68822;BME280;55834;50.870;4.606;2023-05-03T00:03:15;102106.97;;;6.19;47.79
68822;BME280;55834;50.870;4.606;2023-05-03T00:05:41;102107.22;;;6.39;48.14
68822;BME280;55834;50.870;4.606;2023-05-03T00:08:06;102107.75;;;6.91;46.14
68822;BME280;55834;50.870;4.606;2023-05-03T00:10:32;102104.72;;;6.50;46.50
68822;BME280;55834;50.870;4.606;2023-05-03T00:12:57;102097.81;;;6.63;47.25
68822;BME280;55834;50.870;4.606;2023-05-03T00:15:23;102095.13;;;6.52;46.61
68822;BME280;55834;50.870;4.606;2023-05-03T00:17:48;102091.47;;;5.66;48.86
68822;BME280;55834;50.870;4.606;2023-05-03T00:20:14;102089.16;;;5.89;49.34
68822;BME280;55834;50.870;4.606;2023-05-03T00:22:40;102096.09;;;5.85;49.27
68822;BME280;55834;50.870;4.606;2023-05-03T00:25:07;102095.00;;;5.68;48.65
68822;BME280;55834;50.870;4.606;2023-05-03T00:27:33;102089.59;;;5.57;49.64
68822;BME280;55834;50.870;4.606;2023-05-03T00:29:58;102093.28;;;4.62;51.89
68822;BME280;55834;50.870;4.606;2023-05-03T00:32:24;102088.56;;;5.45;50.44
68822;BME280;55834;50.870;4.606;2023-05-03T00:34:53;102090.69;;;5.72;49.64
68822;BME280;55834;50.870;4.606;2023-05-03T00:37:20;102099.19;;;5.55;49.10
68822;BME280;55834;50.870;4.606;2023-05-03T00:39:45;102083.53;;;5.60;49.36
68822;BME280;55834;50.870;4.606;2023-05-03T00:42:11;102085.34;;;6.39;48.59
68822;BME280;55834;50.870;4.606;2023-05-03T00:44:36;102093.22;;;6.39;48.32
68822;BME280;55834;50.870;4.606;2023-05-03T00:47:02;102086.53;;;6.65;47.09
68822;BME280;55834;50.870;4.606;2023-05-03T00:49:28;102093.22;;;6.39;47.06
68822;BME280;55834;50.870;4.606;2023-05-03T00:51:53;102087.91;;;5.61;48.63
68822;BME280;55834;50.870;4.606;2023-05-03T00:54:19;102086.81;;;6.14;47.34
68822;BME280;55834;50.870;4.606;2023-05-03T00:56:45;102089.28;;;5.34;49.80
68822;BME280;55834;50.870;4.606;2023-05-03T00:59:11;102085.06;;;4.92;50.30
68822;BME280;55834;50.870;4.606;2023-05-03T01:01:36;102082.06;;;4.68;51.86
68822;BME280;55834;50.870;4.606;2023-05-03T01:04:05;102087.56;;;4.35;52.07
68822;BME280;55834;50.870;4.606;2023-05-03T01:09:16;102076.38;;;3.98;53.70
68822;BME280;55834;50.870;4.606;2023-05-03T01:12:02;102078.47;;;4.61;51.63
68822;BME280;55834;50.870;4.606;2023-05-03T01:14:57;102068.94;;;5.80;49.46
68822;BME280;55834;50.870;4.606;2023-05-03T01:17:28;102075.63;;;5.57;48.72
68822;BME280;55834;50.870;4.606;2023-05-03T01:19:54;102067.81;;;5.61;49.29
68822;BME280;55834;50.870;4.606;2023-05-03T01:22:46;102068.72;;;6.35;48.15
68822;BME280;55834;50.870;4.606;2023-05-03T01:25:14;102078.66;;;5.89;47.84
68822;BME280;55834;50.870;4.606;2023-05-03T01:27:41;102088.69;;;4.49;51.59
68822;BME280;55834;50.870;4.606;2023-05-03T01:30:09;102084.16;;;3.95;53.29
68822;BME280;55834;50.870;4.606;2023-05-03T01:33:00;102086.09;;;4.50;52.63
68822;BME280;55834;50.870;4.606;2023-05-03T01:38:07;102081.91;;;4.60;52.62
68822;BME280;55834;50.870;4.606;2023-05-03T01:40:39;102083.19;;;4.82;51.27
68822;BME280;55834;50.870;4.606;2023-05-03T01:43:08;102078.63;;;4.70;51.99
68822;BME280;55834;50.870;4.606;2023-05-03T01:45:35;102095.50;;;3.97;53.23
68822;BME280;55834;50.870;4.606;2023-05-03T01:48:00;102082.78;;;4.12;53.52
68822;BME280;55834;50.870;4.606;2023-05-03T01:50:26;102073.72;;;4.90;51.66
68822;BME280;55834;50.870;4.606;2023-05-03T01:52:51;102090.91;;;4.26;53.23
68822;BME280;55834;50.870;4.606;2023-05-03T01:55:17;102087.50;;;4.79;51.73
68822;BME280;55834;50.870;4.606;2023-05-03T01:57:43;102074.59;;;5.47;49.69
68822;BME280;55834;50.870;4.606;2023-05-03T02:00:09;102086.44;;;5.19;49.96
68822;BME280;55834;50.870;4.606;2023-05-03T02:02:34;102081.44;;;4.34;51.62
68822;BME280;55834;50.870;4.606;2023-05-03T02:05:00;102073.38;;;5.22;50.02
68822;BME280;55834;50.870;4.606;2023-05-03T02:07:25;102076.91;;;4.72;51.67
68822;BME280;55834;50.870;4.606;2023-05-03T02:09:50;102058.13;;;5.56;49.61
68822;BME280;55834;50.870;4.606;2023-05-03T02:12:16;102046.25;;;5.81;49.00
68822;BME280;55834;50.870;4.606;2023-05-03T02:14:41;102045.50;;;5.93;48.50
68822;BME280;55834;50.870;4.606;2023-05-03T02:17:06;102035.97;;;5.98;48.75
68822;BME280;55834;50.870;4.606;2023-05-03T02:19:32;102043.63;;;5.17;49.90
68822;BME280;55834;50.870;4.606;2023-05-03T02:21:57;102050.25;;;4.96;51.86
68822;BME280;55834;50.870;4.606;2023-05-03T02:24:23;102044.03;;;4.88;51.04
68822;BME280;55834;50.870;4.606;2023-05-03T02:26:48;102038.66;;;4.81;51.24
68822;BME280;55834;50.870;4.606;2023-05-03T02:29:14;102052.94;;;4.01;53.71
68822;BME280;55834;50.870;4.606;2023-05-03T02:31:40;102055.09;;;3.79;55.22
68822;BME280;55834;50.870;4.606;2023-05-03T02:34:05;102037.63;;;4.69;52.32
68822;BME280;55834;50.870;4.606;2023-05-03T02:36:31;102048.47;;;3.95;54.41
68822;BME280;55834;50.870;4.606;2023-05-03T02:38:56;102050.16;;;3.93;54.98
68822;BME280;55834;50.870;4.606;2023-05-03T02:41:21;102055.59;;;4.05;54.63
68822;BME280;55834;50.870;4.606;2023-05-03T02:43:47;102059.22;;;4.59;53.44
68822;BME280;55834;50.870;4.606;2023-05-03T02:46:12;102055.31;;;3.89;53.86
68822;BME280;55834;50.870;4.606;2023-05-03T02:48:38;102053.81;;;4.48;52.78
68822;BME280;55834;50.870;4.606;2023-05-03T02:51:04;102052.22;;;4.10;53.09
68822;BME280;55834;50.870;4.606;2023-05-03T02:53:29;102050.50;;;3.68;55.42
68822;BME280;55834;50.870;4.606;2023-05-03T02:55:55;102052.59;;;3.84;54.96
68822;BME280;55834;50.870;4.606;2023-05-03T02:58:21;102048.97;;;4.70;52.79
68822;BME280;55834;50.870;4.606;2023-05-03T03:00:46;102055.84;;;4.65;52.76
68822;BME280;55834;50.870;4.606;2023-05-03T03:03:12;102063.28;;;4.42;52.59
68822;BME280;55834;50.870;4.606;2023-05-03T03:05:37;102068.75;;;4.08;53.73
68822;BME280;55834;50.870;4.606;2023-05-03T03:08:03;102046.78;;;4.97;52.14
68822;BME280;55834;50.870;4.606;2023-05-03T03:10:28;102044.88;;;5.42;50.56
68822;BME280;55834;50.870;4.606;2023-05-03T03:12:54;102032.09;;;5.66;49.67
68822;BME280;55834;50.870;4.606;2023-05-03T03:15:19;102031.22;;;5.66;49.87
68822;BME280;55834;50.870;4.606;2023-05-03T03:17:45;102023.03;;;5.43;50.06
68822;BME280;55834;50.870;4.606;2023-05-03T03:20:11;102016.78;;;4.75;51.05
68822;BME280;55834;50.870;4.606;2023-05-03T03:22:37;102012.78;;;4.99;52.10
68822;BME280;55834;50.870;4.606;2023-05-03T03:25:04;102032.16;;;4.08;53.40
68822;BME280;55834;50.870;4.606;2023-05-03T03:27:31;102025.91;;;4.49;52.66
68822;BME280;55834;50.870;4.606;2023-05-03T03:29:56;102012.97;;;4.57;53.14
68822;BME280;55834;50.870;4.606;2023-05-03T03:32:21;102033.13;;;4.14;53.81
68822;BME280;55834;50.870;4.606;2023-05-03T03:34:47;102025.88;;;3.99;54.64
68822;BME280;55834;50.870;4.606;2023-05-03T03:37:12;102029.53;;;4.08;53.71
68822;BME280;55834;50.870;4.606;2023-05-03T03:39:38;102032.72;;;4.38;54.44
68822;BME280;55834;50.870;4.606;2023-05-03T03:42:05;102039.66;;;4.87;52.63
68822;BME280;55834;50.870;4.606;2023-05-03T03:44:31;102035.34;;;4.91;51.89
68822;BME280;55834;50.870;4.606;2023-05-03T03:46:56;102041.06;;;5.20;50.69
68822;BME280;55834;50.870;4.606;2023-05-03T03:49:21;102051.06;;;4.41;52.48
68822;BME280;55834;50.870;4.606;2023-05-03T03:51:47;102048.97;;;4.70;51.75
68822;BME280;55834;50.870;4.606;2023-05-03T03:54:13;102060.88;;;4.54;51.56
68822;BME280;55834;50.870;4.606;2023-05-03T03:56:38;102067.50;;;3.91;53.85
68822;BME280;55834;50.870;4.606;2023-05-03T03:59:04;102068.56;;;3.99;54.28
68822;BME280;55834;50.870;4.606;2023-05-03T04:01:30;102070.00;;;3.43;55.38
68822;BME280;55834;50.870;4.606;2023-05-03T04:03:55;102078.53;;;2.33;59.44
68822;BME280;55834;50.870;4.606;2023-05-03T04:06:20;102076.94;;;2.72;57.67
68822;BME280;55834;50.870;4.606;2023-05-03T04:08:46;102073.97;;;2.92;58.22
68822;BME280;55834;50.870;4.606;2023-05-03T04:11:11;102084.00;;;3.11;56.66
68822;BME280;55834;50.870;4.606;2023-05-03T04:13:37;102087.00;;;3.27;56.10
68822;BME280;55834;50.870;4.606;2023-05-03T04:16:04;102088.09;;;3.00;57.28
68822;BME280;55834;50.870;4.606;2023-05-03T04:18:29;102093.34;;;3.36;55.79
68822;BME280;55834;50.870;4.606;2023-05-03T04:20:55;102090.78;;;2.05;60.42
68822;BME280;55834;50.870;4.606;2023-05-03T04:23:20;102080.78;;;3.20;57.13
68822;BME280;55834;50.870;4.606;2023-05-03T04:25:46;102085.16;;;2.53;58.47
68822;BME280;55834;50.870;4.606;2023-05-03T04:28:12;102083.50;;;3.64;55.96
68822;BME280;55834;50.870;4.606;2023-05-03T04:30:39;102084.88;;;3.10;56.24
68822;BME280;55834;50.870;4.606;2023-05-03T04:33:06;102090.84;;;3.06;56.10
68822;BME280;55834;50.870;4.606;2023-05-03T04:35:31;102086.50;;;2.72;58.30
68822;BME280;55834;50.870;4.606;2023-05-03T04:37:56;102088.81;;;2.94;56.91
68822;BME280;55834;50.870;4.606;2023-05-03T04:40:22;102089.03;;;3.38;57.03
68822;BME280;55834;50.870;4.606;2023-05-03T04:42:47;102098.31;;;2.91;57.96
68822;BME280;55834;50.870;4.606;2023-05-03T04:45:13;102096.28;;;3.15;57.90
68822;BME280;55834;50.870;4.606;2023-05-03T04:47:38;102098.19;;;2.53;57.88
68822;BME280;55834;50.870;4.606;2023-05-03T04:50:05;102105.41;;;2.32;59.67
68822;BME280;55834;50.870;4.606;2023-05-03T04:52:32;102109.72;;;2.61;58.78
68822;BME280;55834;50.870;4.606;2023-05-03T04:54:57;102114.09;;;2.31;59.51
68822;BME280;55834;50.870;4.606;2023-05-03T04:57:22;102113.03;;;2.24;59.27
68822;BME280;55834;50.870;4.606;2023-05-03T04:59:48;102106.16;;;3.27;56.18
68822;BME280;55834;50.870;4.606;2023-05-03T05:02:14;102110.09;;;2.77;58.28
68822;BME280;55834;50.870;4.606;2023-05-03T05:04:39;102113.00;;;2.22;59.73
68822;BME280;55834;50.870;4.606;2023-05-03T05:07:05;102110.69;;;2.66;59.28
68822;BME280;55834;50.870;4.606;2023-05-03T05:09:30;102110.63;;;2.98;57.17
68822;BME280;55834;50.870;4.606;2023-05-03T05:11:56;102098.78;;;3.47;55.73
68822;BME280;55834;50.870;4.606;2023-05-03T05:14:22;102098.91;;;3.52;57.12
68822;BME280;55834;50.870;4.606;2023-05-03T05:16:47;102097.59;;;3.33;55.62
68822;BME280;55834;50.870;4.606;2023-05-03T05:19:13;102099.91;;;3.58;56.50
68822;BME280;55834;50.870;4.606;2023-05-03T05:21:38;102095.69;;;4.51;54.27
68822;BME280;55834;50.870;4.606;2023-05-03T05:24:04;102101.94;;;4.13;54.83
68822;BME280;55834;50.870;4.606;2023-05-03T05:26:30;102109.09;;;4.21;53.69
68822;BME280;55834;50.870;4.606;2023-05-03T05:28:55;102097.34;;;4.45;53.35
68822;BME280;55834;50.870;4.606;2023-05-03T05:31:22;102101.69;;;4.46;55.05
68822;BME280;55834;50.870;4.606;2023-05-03T05:33:48;102110.06;;;4.26;53.66
68822;BME280;55834;50.870;4.606;2023-05-03T05:36:14;102105.16;;;5.47;53.32
68822;BME280;55834;50.870;4.606;2023-05-03T05:38:39;102107.16;;;5.63;51.11
68822;BME280;55834;50.870;4.606;2023-05-03T05:41:05;102116.06;;;4.68;53.04
68822;BME280;55834;50.870;4.606;2023-05-03T05:43:30;102108.66;;;5.46;53.67
68822;BME280;55834;50.870;4.606;2023-05-03T05:45:56;102111.16;;;5.38;51.60
68822;BME280;55834;50.870;4.606;2023-05-03T05:48:21;102119.97;;;4.91;53.09
68822;BME280;55834;50.870;4.606;2023-05-03T05:50:46;102106.97;;;6.19;51.56
68822;BME280;55834;50.870;4.606;2023-05-03T05:53:13;102114.78;;;6.92;49.61
68822;BME280;55834;50.870;4.606;2023-05-03T05:55:38;102103.75;;;7.44;48.77
68822;BME280;55834;50.870;4.606;2023-05-03T05:58:03;102111.72;;;7.55;47.77
68822;BME280;55834;50.870;4.606;2023-05-03T06:00:29;102120.28;;;7.26;49.42
68822;BME280;55834;50.870;4.606;2023-05-03T06:02:55;102122.19;;;7.45;46.47
68822;BME280;55834;50.870;4.606;2023-05-03T06:05:20;102120.56;;;7.64;46.96
68822;BME280;55834;50.870;4.606;2023-05-03T06:07:47;102126.13;;;8.17;47.11
68822;BME280;55834;50.870;4.606;2023-05-03T06:10:13;102113.91;;;8.51;46.20
68822;BME280;55834;50.870;4.606;2023-05-03T06:12:38;102117.16;;;7.84;45.71
68822;BME280;55834;50.870;4.606;2023-05-03T06:15:04;102110.63;;;7.19;46.97
68822;BME280;55834;50.870;4.606;2023-05-03T06:17:30;102106.66;;;7.88;46.91
68822;BME280;55834;50.870;4.606;2023-05-03T06:19:56;102106.00;;;8.40;46.12
68822;BME280;55834;50.870;4.606;2023-05-03T06:22:22;102094.63;;;8.56;45.04
68822;BME280;55834;50.870;4.606;2023-05-03T06:24:48;102098.16;;;8.75;45.26
68822;BME280;55834;50.870;4.606;2023-05-03T06:27:27;102103.44;;;8.86;43.49
68822;BME280;55834;50.870;4.606;2023-05-03T06:29:54;102108.47;;;8.03;46.54
68822;BME280;55834;50.870;4.606;2023-05-03T06:32:19;102102.56;;;8.75;45.62
68822;BME280;55834;50.870;4.606;2023-05-03T06:34:47;102095.50;;;9.31;44.59
68822;BME280;55834;50.870;4.606;2023-05-03T06:37:12;102091.13;;;9.53;43.17
68822;BME280;55834;50.870;4.606;2023-05-03T06:39:38;102089.25;;;9.78;43.23
68822;BME280;55834;50.870;4.606;2023-05-03T06:42:04;102083.13;;;9.77;41.92
68822;BME280;55834;50.870;4.606;2023-05-03T06:44:30;102076.81;;;10.12;41.95
68822;BME280;55834;50.870;4.606;2023-05-03T06:46:55;102078.72;;;9.79;40.56
68822;BME280;55834;50.870;4.606;2023-05-03T06:49:21;102085.75;;;9.79;40.91
68822;BME280;55834;50.870;4.606;2023-05-03T06:51:46;102086.44;;;10.22;41.59
68822;BME280;55834;50.870;4.606;2023-05-03T06:54:12;102082.75;;;10.55;41.10
68822;BME280;55834;50.870;4.606;2023-05-03T06:56:38;102079.72;;;9.34;42.45
68822;BME280;55834;50.870;4.606;2023-05-03T06:59:04;102092.00;;;8.52;43.45
68822;BME280;55834;50.870;4.606;2023-05-03T07:01:30;102079.72;;;9.01;43.90
68822;BME280;55834;50.870;4.606;2023-05-03T07:03:56;102078.78;;;9.55;42.57
68822;BME280;55834;50.870;4.606;2023-05-03T07:06:22;102081.47;;;8.70;44.08
68822;BME280;55834;50.870;4.606;2023-05-03T07:08:52;102077.94;;;9.23;42.49
68822;BME280;55834;50.870;4.606;2023-05-03T07:11:18;102074.25;;;9.97;43.11
68822;BME280;55834;50.870;4.606;2023-05-03T07:13:46;102073.22;;;10.28;41.77
68822;BME280;55834;50.870;4.606;2023-05-03T07:16:11;102063.31;;;10.64;40.84
68822;BME280;55834;50.870;4.606;2023-05-03T07:18:37;102063.13;;;10.87;40.35
68822;BME280;55834;50.870;4.606;2023-05-03T07:21:02;102067.66;;;10.73;40.28
68822;BME280;55834;50.870;4.606;2023-05-03T07:23:30;102062.91;;;11.08;40.67
68822;BME280;55834;50.870;4.606;2023-05-03T07:25:59;102061.66;;;10.48;41.62
68822;BME280;55834;50.870;4.606;2023-05-03T07:28:25;102056.09;;;10.84;40.33
68822;BME280;55834;50.870;4.606;2023-05-03T07:30:50;102057.41;;;11.33;39.71
68822;BME280;55834;50.870;4.606;2023-05-03T07:33:17;102061.84;;;10.17;39.88
68822;BME280;55834;50.870;4.606;2023-05-03T07:35:46;102058.94;;;10.63;41.01
68822;BME280;55834;50.870;4.606;2023-05-03T07:38:12;102046.03;;;11.26;40.85
68822;BME280;55834;50.870;4.606;2023-05-03T07:40:38;102049.88;;;11.78;39.65
68822;BME280;55834;50.870;4.606;2023-05-03T07:43:04;102049.03;;;11.74;39.28
68822;BME280;55834;50.870;4.606;2023-05-03T07:45:29;102043.81;;;10.80;39.86
68822;BME280;55834;50.870;4.606;2023-05-03T07:47:56;102046.66;;;11.50;40.47
68822;BME280;55834;50.870;4.606;2023-05-03T07:50:22;102048.78;;;11.94;37.97
68822;BME280;55834;50.870;4.606;2023-05-03T07:52:48;102051.94;;;11.50;39.62
68822;BME280;55834;50.870;4.606;2023-05-03T07:55:19;102057.22;;;10.53;41.07
68822;BME280;55834;50.870;4.606;2023-05-03T07:57:44;102050.03;;;10.75;38.94
68822;BME280;55834;50.870;4.606;2023-05-03T08:00:11;102051.03;;;11.52;39.58
68822;BME280;55834;50.870;4.606;2023-05-03T08:02:37;102046.69;;;11.47;38.46
68822;BME280;55834;50.870;4.606;2023-05-03T08:05:02;102045.13;;;12.03;39.01
68822;BME280;55834;50.870;4.606;2023-05-03T08:07:31;102040.50;;;12.17;37.41
68822;BME280;55834;50.870;4.606;2023-05-03T08:09:57;102041.50;;;11.38;41.50
68822;BME280;55834;50.870;4.606;2023-05-03T08:12:24;102044.41;;;11.12;38.85
68822;BME280;55834;50.870;4.606;2023-05-03T08:14:54;102040.22;;;11.74;40.57
68822;BME280;55834;50.870;4.606;2023-05-03T08:17:20;102036.19;;;12.12;39.63
68822;BME280;55834;50.870;4.606;2023-05-03T08:19:47;102052.47;;;9.50;41.88
68822;BME280;55834;50.870;4.606;2023-05-03T08:22:12;102042.44;;;10.23;43.13
68822;BME280;55834;50.870;4.606;2023-05-03T08:24:39;102034.50;;;11.30;41.22
68822;BME280;55834;50.870;4.606;2023-05-03T08:27:05;102041.53;;;10.27;41.09
68822;BME280;55834;50.870;4.606;2023-05-03T08:29:32;102035.59;;;11.13;39.36
68822;BME280;55834;50.870;4.606;2023-05-03T08:31:57;102026.69;;;11.97;39.07
68822;BME280;55834;50.870;4.606;2023-05-03T08:34:24;102021.56;;;12.45;38.04
68822;BME280;55834;50.870;4.606;2023-05-03T08:36:50;102029.28;;;12.02;37.64
68822;BME280;55834;50.870;4.606;2023-05-03T08:39:16;102030.75;;;11.51;37.95
68822;BME280;55834;50.870;4.606;2023-05-03T08:41:43;102033.69;;;11.25;37.07
68822;BME280;55834;50.870;4.606;2023-05-03T08:44:11;102036.13;;;10.50;39.01
68822;BME280;55834;50.870;4.606;2023-05-03T08:46:36;102037.06;;;11.40;39.13
68822;BME280;55834;50.870;4.606;2023-05-03T08:49:03;102038.88;;;12.10;36.89
68822;BME280;55834;50.870;4.606;2023-05-03T08:51:28;102035.66;;;11.87;38.42
68822;BME280;55834;50.870;4.606;2023-05-03T08:53:54;102022.28;;;12.53;36.80
68822;BME280;55834;50.870;4.606;2023-05-03T08:56:42;102028.69;;;12.96;36.72
68822;BME280;55834;50.870;4.606;2023-05-03T08:59:11;102022.47;;;13.45;35.29
68822;BME280;55834;50.870;4.606;2023-05-03T09:01:40;102026.97;;;13.41;33.81
68822;BME280;55834;50.870;4.606;2023-05-03T09:04:07;102020.91;;;13.33;34.64
68822;BME280;55834;50.870;4.606;2023-05-03T09:06:33;102035.34;;;12.08;34.73
68822;BME280;55834;50.870;4.606;2023-05-03T09:09:00;102024.38;;;12.33;36.19
68822;BME280;55834;50.870;4.606;2023-05-03T09:11:30;102021.88;;;12.82;35.23
68822;BME280;55834;50.870;4.606;2023-05-03T09:14:17;102027.75;;;13.46;34.26
68822;BME280;55834;50.870;4.606;2023-05-03T09:16:43;102040.31;;;12.31;34.70
68822;BME280;55834;50.870;4.606;2023-05-03T09:19:11;102037.56;;;12.36;35.05
68822;BME280;55834;50.870;4.606;2023-05-03T09:21:37;102030.75;;;12.21;38.44
68822;BME280;55834;50.870;4.606;2023-05-03T09:24:14;102013.16;;;13.24;35.80
68822;BME280;55834;50.870;4.606;2023-05-03T09:26:41;102017.50;;;13.71;33.46
68822;BME280;55834;50.870;4.606;2023-05-03T09:29:07;102008.16;;;13.53;33.83
68822;BME280;55834;50.870;4.606;2023-05-03T09:31:35;102018.78;;;13.95;33.88
68822;BME280;55834;50.870;4.606;2023-05-03T09:34:01;102017.72;;;14.41;33.29
68822;BME280;55834;50.870;4.606;2023-05-03T09:36:26;102021.59;;;14.27;32.96
68822;BME280;55834;50.870;4.606;2023-05-03T09:38:53;102016.72;;;14.08;34.04
68822;BME280;55834;50.870;4.606;2023-05-03T09:41:29;102018.84;;;14.30;32.41
68822;BME280;55834;50.870;4.606;2023-05-03T09:43:55;102022.34;;;13.04;34.68
68822;BME280;55834;50.870;4.606;2023-05-03T09:46:22;102028.13;;;11.50;34.82
68822;BME280;55834;50.870;4.606;2023-05-03T09:48:53;102025.34;;;12.30;35.63
68822;BME280;55834;50.870;4.606;2023-05-03T09:51:24;102017.84;;;12.58;35.30
68822;BME280;55834;50.870;4.606;2023-05-03T09:53:49;102013.56;;;12.48;34.08
68822;BME280;55834;50.870;4.606;2023-05-03T09:56:15;102023.09;;;12.01;34.80
68822;BME280;55834;50.870;4.606;2023-05-03T09:58:42;102006.44;;;11.19;37.45
68822;BME280;55834;50.870;4.606;2023-05-03T10:01:10;102001.41;;;12.36;37.68
68822;BME280;55834;50.870;4.606;2023-05-03T10:08:48;101999.28;;;13.56;33.98
68822;BME280;55834;50.870;4.606;2023-05-03T10:11:17;101996.22;;;13.74;32.45
68822;BME280;55834;50.870;4.606;2023-05-03T10:13:44;101991.50;;;14.26;33.53
68822;BME280;55834;50.870;4.606;2023-05-03T10:16:14;101989.47;;;14.37;31.89
68822;BME280;55834;50.870;4.606;2023-05-03T10:18:48;101995.94;;;12.46;33.79
68822;BME280;55834;50.870;4.606;2023-05-03T10:21:34;101996.66;;;12.55;34.59
68822;BME280;55834;50.870;4.606;2023-05-03T10:24:13;101998.25;;;11.40;38.40
68822;BME280;55834;50.870;4.606;2023-05-03T10:26:41;101997.41;;;10.49;37.48
68822;BME280;55834;50.870;4.606;2023-05-03T10:32:05;101982.13;;;13.72;34.70
68822;BME280;55834;50.870;4.606;2023-05-03T10:35:08;101981.78;;;14.25;33.37
68822;BME280;55834;50.870;4.606;2023-05-03T10:37:39;101975.63;;;14.25;35.15
68822;BME280;55834;50.870;4.606;2023-05-03T10:42:36;101969.09;;;15.06;32.44
68822;BME280;55834;50.870;4.606;2023-05-03T10:45:02;101980.72;;;15.35;31.02
68822;BME280;55834;50.870;4.606;2023-05-03T10:47:28;101984.25;;;13.10;34.25
68822;BME280;55834;50.870;4.606;2023-05-03T10:55:18;101980.31;;;12.29;34.22
68822;BME280;55834;50.870;4.606;2023-05-03T10:57:45;101974.03;;;9.90;39.03
68822;BME280;55834;50.870;4.606;2023-05-03T11:00:13;101963.09;;;10.49;39.06
68822;BME280;55834;50.870;4.606;2023-05-03T11:05:46;101954.34;;;13.45;33.47
68822;BME280;55834;50.870;4.606;2023-05-03T11:08:16;101960.59;;;13.43;33.28
68822;BME280;55834;50.870;4.606;2023-05-03T11:10:43;101956.25;;;12.95;33.29
68822;BME280;55834;50.870;4.606;2023-05-03T11:13:08;101954.44;;;13.84;33.77
68822;BME280;55834;50.870;4.606;2023-05-03T11:15:34;101950.31;;;14.10;30.83
68822;BME280;55834;50.870;4.606;2023-05-03T11:18:00;101947.19;;;13.07;32.92
68822;BME280;55834;50.870;4.606;2023-05-03T11:20:26;101954.28;;;13.48;32.40
68822;BME280;55834;50.870;4.606;2023-05-03T11:22:51;101958.19;;;13.74;31.13
68822;BME280;55834;50.870;4.606;2023-05-03T11:25:18;101948.69;;;14.03;31.72
68822;BME280;55834;50.870;4.606;2023-05-03T11:27:43;101948.75;;;14.35;29.68
68822;BME280;55834;50.870;4.606;2023-05-03T11:30:11;101935.25;;;14.79;30.12
68822;BME280;55834;50.870;4.606;2023-05-03T11:32:37;101934.81;;;14.63;30.82
68822;BME280;55834;50.870;4.606;2023-05-03T11:35:04;101936.50;;;13.12;31.41
68822;BME280;55834;50.870;4.606;2023-05-03T11:37:30;101941.88;;;13.50;32.80
68822;BME280;55834;50.870;4.606;2023-05-03T11:39:57;101930.63;;;14.17;30.83
68822;BME280;55834;50.870;4.606;2023-05-03T11:42:22;101935.63;;;14.99;30.81
68822;BME280;55834;50.870;4.606;2023-05-03T11:44:51;101935.53;;;15.02;30.33
68822;BME280;55834;50.870;4.606;2023-05-03T11:47:16;101942.88;;;14.24;30.18
68822;BME280;55834;50.870;4.606;2023-05-03T11:49:55;101930.59;;;14.88;30.79
68822;BME280;55834;50.870;4.606;2023-05-03T11:52:26;101933.63;;;12.76;31.83
68822;BME280;55834;50.870;4.606;2023-05-03T11:54:52;101930.25;;;13.14;31.12
68822;BME280;55834;50.870;4.606;2023-05-03T11:57:19;101919.94;;;14.20;29.72
68822;BME280;55834;50.870;4.606;2023-05-03T11:59:45;101914.13;;;14.40;29.12
68822;BME280;55834;50.870;4.606;2023-05-03T12:02:12;101907.03;;;14.05;29.56
68822;BME280;55834;50.870;4.606;2023-05-03T12:04:39;101905.03;;;14.14;30.24
68822;BME280;55834;50.870;4.606;2023-05-03T12:07:05;101904.13;;;14.15;30.71
68822;BME280;55834;50.870;4.606;2023-05-03T12:09:32;101901.34;;;14.88;30.21
68822;BME280;55834;50.870;4.606;2023-05-03T12:11:58;101899.41;;;14.62;29.86
68822;BME280;55834;50.870;4.606;2023-05-03T12:14:24;101886.19;;;15.22;29.14
68822;BME280;55834;50.870;4.606;2023-05-03T12:16:51;101878.31;;;14.87;31.52
68822;BME280;55834;50.870;4.606;2023-05-03T12:19:43;101871.78;;;15.29;30.82
68822;BME280;55834;50.870;4.606;2023-05-03T12:22:18;101864.59;;;14.37;30.46
68822;BME280;55834;50.870;4.606;2023-05-03T12:24:44;101868.31;;;13.17;33.41
68822;BME280;55834;50.870;4.606;2023-05-03T12:27:10;101854.44;;;14.86;31.47
68822;BME280;55834;50.870;4.606;2023-05-03T12:29:37;101857.50;;;15.02;31.15
68822;BME280;55834;50.870;4.606;2023-05-03T12:32:03;101851.94;;;15.11;29.46
68822;BME280;55834;50.870;4.606;2023-05-03T12:34:29;101855.03;;;13.18;32.78
68822;BME280;55834;50.870;4.606;2023-05-03T12:36:54;101854.53;;;12.54;34.51
68822;BME280;55834;50.870;4.606;2023-05-03T12:39:23;101835.13;;;13.78;33.10
68822;BME280;55834;50.870;4.606;2023-05-03T12:41:49;101833.56;;;13.69;33.73
68822;BME280;55834;50.870;4.606;2023-05-03T12:44:14;101841.78;;;14.63;32.34
68822;BME280;55834;50.870;4.606;2023-05-03T12:46:40;101840.09;;;15.21;30.55
68822;BME280;55834;50.870;4.606;2023-05-03T12:49:06;101819.41;;;15.59;29.77
68822;BME280;55834;50.870;4.606;2023-05-03T12:51:31;101824.06;;;15.81;28.65
68822;BME280;55834;50.870;4.606;2023-05-03T12:53:57;101805.66;;;15.99;29.62
68822;BME280;55834;50.870;4.606;2023-05-03T12:56:22;101832.50;;;14.47;31.48
68822;BME280;55834;50.870;4.606;2023-05-03T12:58:48;101821.50;;;14.26;31.82
68822;BME280;55834;50.870;4.606;2023-05-03T13:01:14;101811.84;;;15.47;31.00
68822;BME280;55834;50.870;4.606;2023-05-03T13:03:41;101800.50;;;15.95;29.75
68822;BME280;55834;50.870;4.606;2023-05-03T13:06:07;101801.97;;;15.50;29.25
68822;BME280;55834;50.870;4.606;2023-05-03T13:08:32;101799.25;;;15.22;29.41
68822;BME280;55834;50.870;4.606;2023-05-03T13:10:59;101809.59;;;15.03;29.39
68822;BME280;55834;50.870;4.606;2023-05-03T13:13:25;101795.19;;;14.50;31.76
68822;BME280;55834;50.870;4.606;2023-05-03T13:15:52;101789.25;;;15.30;31.53
68822;BME280;55834;50.870;4.606;2023-05-03T13:18:18;101776.97;;;16.08;30.65